createdAt,value
2022-11-08T00:00:00.732Z,99.90
2022-11-08T00:02:27.818Z,99.90
2022-11-08T00:04:55.098Z,99.90
2022-11-08T00:07:40.698Z,99.90
2022-11-08T00:10:26.463Z,99.90
2022-11-08T00:13:11.770Z,99.90
2022-11-08T00:15:39.152Z,99.90
2022-11-08T00:18:07.420Z,99.90
2022-11-08T00:20:34.868Z,99.90
2022-11-08T00:23:01.976Z,99.90
2022-11-08T00:25:28.876Z,99.90
2022-11-08T00:27:55.750Z,99.90
2022-11-08T00:30:22.651Z,99.90
2022-11-08T00:32:49.447Z,99.90
2022-11-08T00:35:16.609Z,99.90
2022-11-08T00:37:43.441Z,99.90
2022-11-08T00:40:11.108Z,99.90
2022-11-08T00:42:38.037Z,99.90
2022-11-08T00:45:05.503Z,99.90
2022-11-08T00:47:32.400Z,99.90
2022-11-08T00:49:59.310Z,99.90
2022-11-08T00:52:26.478Z,99.90
2022-11-08T00:54:53.376Z,99.90
2022-11-08T00:57:22.347Z,99.90
2022-11-08T00:59:57.970Z,99.90
2022-11-08T01:02:25.141Z,99.90
2022-11-08T01:04:52.151Z,99.90
2022-11-08T01:07:19.261Z,99.90
2022-11-08T01:09:46.229Z,99.90
2022-11-08T01:12:13.156Z,99.90
2022-11-08T01:14:40.032Z,99.90
2022-11-08T01:17:06.904Z,99.90
2022-11-08T01:19:36.832Z,99.90
2022-11-08T01:22:06.672Z,99.90
2022-11-08T01:24:37.918Z,99.90
2022-11-08T01:27:05.021Z,99.90
2022-11-08T01:29:33.401Z,99.90
2022-11-08T01:32:03.080Z,99.90
2022-11-08T01:34:33.090Z,99.90
2022-11-08T01:37:00.071Z,99.90
2022-11-08T01:39:27.755Z,99.90
2022-11-08T01:41:54.600Z,99.90
2022-11-08T01:44:22.261Z,99.90
2022-11-08T01:46:49.308Z,99.90
2022-11-08T01:49:25.140Z,95.10
2022-11-08T01:52:02.520Z,87.70
2022-11-08T01:54:53.524Z,84.70
2022-11-08T01:57:32.997Z,45.00
2022-11-08T02:00:05.457Z,47.40
2022-11-08T02:02:37.098Z,50.90
2022-11-08T02:05:08.123Z,47.10
2022-11-08T02:07:35.216Z,35.00
2022-11-08T02:10:05.055Z,27.60
2022-11-08T02:12:32.152Z,27.40
2022-11-08T02:15:02.347Z,19.90
2022-11-08T02:17:29.278Z,14.70
2022-11-08T02:19:56.231Z,16.30
2022-11-08T02:22:31.314Z,26.90
2022-11-08T02:24:58.761Z,20.30
2022-11-08T02:27:26.363Z,24.90
2022-11-08T02:29:57.906Z,24.70
2022-11-08T02:32:24.863Z,21.10
2022-11-08T02:34:56.718Z,4.20
2022-11-08T02:37:27.057Z,12.10
2022-11-08T02:39:53.972Z,11.00
2022-11-08T02:42:21.469Z,16.10
2022-11-08T02:44:48.823Z,13.60
2022-11-08T02:47:16.368Z,6.60
2022-11-08T02:49:43.589Z,1.20
2022-11-08T02:52:10.886Z,1.00
2022-11-08T02:54:37.908Z,1.00
2022-11-08T02:57:04.853Z,1.00
2022-11-08T02:59:31.854Z,1.00
2022-11-08T03:02:01.765Z,1.00
2022-11-08T03:04:40.104Z,10.20
2022-11-08T03:07:07.041Z,18.80
2022-11-08T03:09:37.668Z,29.40
2022-11-08T03:12:07.843Z,41.50
2022-11-08T03:14:34.755Z,47.10
2022-11-08T03:17:04.751Z,54.60
2022-11-08T03:19:37.755Z,25.60
2022-11-08T03:22:04.686Z,48.40
2022-11-08T03:24:31.616Z,61.40
2022-11-08T03:27:04.955Z,48.90
2022-11-08T03:29:31.898Z,52.80
2022-11-08T03:31:58.920Z,26.80
2022-11-08T03:34:25.818Z,38.20
2022-11-08T03:36:52.683Z,43.40
2022-11-08T03:39:19.575Z,98.10
2022-11-08T03:41:46.485Z,87.10
2022-11-08T03:44:13.445Z,95.20
2022-11-08T03:46:40.334Z,99.90
2022-11-08T03:49:07.418Z,99.90
2022-11-08T03:51:34.265Z,99.90
2022-11-08T03:54:01.161Z,99.90
2022-11-08T03:56:28.002Z,99.90
2022-11-08T03:58:55.002Z,99.90
2022-11-08T04:01:22.037Z,99.90
2022-11-08T04:03:48.996Z,99.90
2022-11-08T04:06:16.089Z,99.90
2022-11-08T04:08:43.097Z,99.90
2022-11-08T04:11:28.312Z,99.90
2022-11-08T04:14:13.967Z,99.90
2022-11-08T04:16:41.043Z,99.90
2022-11-08T04:19:26.426Z,99.90
2022-11-08T04:21:54.964Z,99.90
2022-11-08T04:24:22.104Z,99.90
2022-11-08T04:26:48.973Z,99.90
2022-11-08T04:29:15.924Z,99.90
2022-11-08T04:31:42.825Z,99.90
2022-11-08T04:34:09.780Z,99.90
2022-11-08T04:36:36.751Z,99.90
2022-11-08T04:39:04.561Z,99.90
2022-11-08T04:41:31.457Z,99.90
2022-11-08T04:43:58.459Z,99.90
2022-11-08T04:46:28.025Z,99.90
2022-11-08T04:48:59.452Z,99.90
2022-11-08T04:51:29.844Z,99.90
2022-11-08T04:54:01.354Z,99.90
2022-11-08T04:56:30.331Z,99.90
2022-11-08T04:58:59.457Z,99.90
2022-11-08T05:01:31.454Z,99.90
2022-11-08T05:03:59.158Z,99.90
2022-11-08T05:06:28.800Z,99.90
2022-11-08T05:08:57.091Z,99.90
2022-11-08T05:11:26.096Z,1.00
2022-11-08T05:13:53.509Z,1.00
2022-11-08T05:16:23.463Z,1.00
2022-11-08T05:18:51.418Z,1.00
2022-11-08T05:21:39.149Z,1.00
2022-11-08T05:24:07.805Z,1.00
2022-11-08T05:26:36.324Z,1.00
2022-11-08T05:29:04.126Z,1.00
2022-11-08T05:31:31.209Z,1.00
2022-11-08T05:34:00.097Z,1.00
2022-11-08T05:36:27.897Z,1.00
2022-11-08T05:38:55.600Z,1.00
2022-11-08T05:41:24.522Z,1.00
2022-11-08T05:43:54.023Z,1.00
2022-11-08T05:46:22.801Z,1.00
2022-11-08T05:48:50.253Z,1.00
2022-11-08T05:51:18.487Z,1.00
2022-11-08T05:53:47.194Z,1.00
2022-11-08T05:56:14.555Z,1.00
2022-11-08T05:58:41.386Z,1.00
2022-11-08T06:01:11.689Z,1.00
2022-11-08T06:03:39.200Z,1.00
2022-11-08T06:06:15.722Z,1.00
2022-11-08T06:08:46.270Z,1.00
2022-11-08T06:11:21.732Z,1.00
2022-11-08T06:13:48.783Z,1.00
2022-11-08T06:16:16.682Z,1.00
2022-11-08T06:18:43.874Z,1.00
2022-11-08T06:21:15.951Z,1.00
2022-11-08T06:23:43.411Z,1.00
2022-11-08T06:26:10.300Z,1.00
2022-11-08T06:28:37.280Z,99.90
2022-11-08T06:31:05.007Z,99.90
2022-11-08T06:33:32.644Z,99.90
2022-11-08T06:35:59.659Z,99.90
2022-11-08T06:38:26.743Z,99.90
2022-11-08T06:40:53.841Z,99.90
2022-11-08T06:43:21.269Z,99.90
2022-11-08T06:45:48.599Z,99.90
2022-11-08T06:48:15.585Z,99.90
2022-11-08T06:50:43.108Z,99.90
2022-11-08T06:53:12.909Z,99.90
2022-11-08T06:55:39.860Z,99.90
2022-11-08T06:58:07.135Z,99.90
2022-11-08T07:00:34.207Z,99.90
2022-11-08T07:03:03.400Z,99.90
2022-11-08T07:05:32.530Z,99.90
2022-11-08T07:08:00.323Z,99.90
2022-11-08T07:10:29.947Z,99.90
2022-11-08T07:13:02.067Z,99.90
2022-11-08T07:15:29.645Z,96.10
2022-11-08T07:18:03.817Z,81.20
2022-11-08T07:20:31.273Z,61.50
2022-11-08T07:22:59.102Z,44.20
2022-11-08T07:25:26.960Z,15.80
2022-11-08T07:27:58.322Z,1.00
2022-11-08T07:30:27.434Z,1.00
2022-11-08T07:32:55.791Z,1.00
2022-11-08T07:35:24.162Z,1.00
2022-11-08T07:37:51.145Z,1.00
2022-11-08T07:40:18.127Z,1.00
2022-11-08T07:43:10.131Z,1.00
2022-11-08T07:45:31.958Z,1.00
2022-11-08T07:48:10.589Z,1.00
2022-11-08T07:50:38.634Z,1.00
2022-11-08T07:53:05.631Z,1.00
2022-11-08T07:55:32.811Z,1.00
2022-11-08T07:58:02.097Z,1.00
2022-11-08T08:00:30.476Z,1.00
2022-11-08T08:02:58.840Z,1.00
2022-11-08T08:05:32.632Z,1.00
2022-11-08T08:08:01.931Z,1.00
2022-11-08T08:10:30.170Z,1.00
2022-11-08T08:12:57.388Z,1.00
2022-11-08T08:15:25.325Z,1.00
2022-11-08T08:17:52.206Z,1.00
2022-11-08T08:20:19.477Z,1.00
2022-11-08T08:22:48.996Z,1.00
2022-11-08T08:25:16.971Z,1.00
2022-11-08T08:27:57.847Z,1.00
2022-11-08T08:30:25.279Z,1.00
2022-11-08T08:33:08.250Z,1.00
2022-11-08T08:35:36.406Z,1.00
2022-11-08T08:38:04.105Z,1.00
2022-11-08T08:40:31.853Z,1.00
2022-11-08T08:43:01.050Z,1.00
2022-11-08T08:45:28.027Z,1.00
2022-11-08T08:47:56.897Z,1.00
2022-11-08T08:50:25.981Z,1.00
2022-11-08T08:52:56.684Z,1.00
2022-11-08T08:55:23.569Z,1.00
2022-11-08T08:57:50.681Z,1.00
2022-11-08T09:03:08.690Z,1.00
2022-11-08T09:05:36.024Z,1.00
2022-11-08T09:08:03.659Z,1.00
2022-11-08T09:10:30.715Z,1.00
2022-11-08T09:12:57.669Z,1.00
2022-11-08T09:15:24.612Z,1.00
2022-11-08T09:17:54.575Z,1.00
2022-11-08T09:20:22.400Z,1.00
2022-11-08T09:22:49.498Z,1.00
2022-11-08T09:25:16.449Z,1.00
2022-11-08T09:27:43.349Z,1.00
2022-11-08T09:30:10.629Z,1.00
2022-11-08T09:32:59.810Z,1.00
2022-11-08T09:35:24.685Z,1.00
2022-11-08T09:37:55.139Z,1.00
2022-11-08T09:40:30.180Z,1.00
2022-11-08T09:43:26.196Z,1.00
2022-11-08T09:45:56.007Z,1.00
2022-11-08T09:48:32.253Z,1.00
2022-11-08T09:51:05.954Z,1.00
2022-11-08T09:53:47.518Z,1.00
2022-11-08T09:56:30.581Z,1.00
2022-11-08T09:59:02.636Z,1.00
2022-11-08T10:01:37.006Z,1.00
2022-11-08T10:04:11.812Z,1.00
2022-11-08T10:06:59.406Z,1.00
2022-11-08T10:09:58.700Z,1.00
2022-11-08T10:13:02.689Z,1.00
2022-11-08T10:15:46.548Z,1.00
2022-11-08T10:18:43.480Z,1.00
2022-11-08T10:21:58.318Z,1.00
2022-11-08T10:24:35.417Z,1.00
2022-11-08T10:27:04.013Z,1.00
2022-11-08T10:29:55.101Z,1.00
2022-11-08T10:32:25.110Z,1.00
2022-11-08T10:35:06.914Z,1.00
2022-11-08T10:37:34.380Z,1.00
2022-11-08T10:40:13.845Z,1.00
2022-11-08T10:43:06.729Z,1.00
2022-11-08T10:45:36.314Z,1.00
2022-11-08T10:48:04.248Z,1.00
2022-11-08T10:50:52.700Z,1.00
2022-11-08T10:53:32.776Z,1.00
2022-11-08T10:56:04.828Z,1.00
2022-11-08T10:58:36.330Z,1.00
2022-11-08T11:01:19.238Z,1.00
2022-11-08T11:03:47.988Z,1.00
2022-11-08T11:06:44.262Z,1.00
2022-11-08T11:09:22.443Z,1.00
2022-11-08T11:12:08.027Z,1.00
2022-11-08T11:14:37.057Z,1.00
2022-11-08T11:17:18.667Z,1.00
2022-11-08T11:19:55.572Z,1.00
2022-11-08T11:22:35.689Z,1.00
2022-11-08T11:25:17.607Z,1.00
2022-11-08T11:27:51.490Z,1.00
2022-11-08T11:30:30.353Z,1.00
2022-11-08T11:33:02.065Z,1.00
2022-11-08T11:35:48.137Z,1.00
2022-11-08T11:38:40.425Z,1.00
2022-11-08T11:41:17.710Z,1.00
2022-11-08T11:44:14.041Z,1.00
2022-11-08T11:47:04.842Z,1.00
2022-11-08T11:49:32.247Z,1.00
2022-11-08T11:51:59.199Z,1.00
2022-11-08T11:54:31.150Z,1.00
2022-11-08T11:57:26.951Z,1.00
2022-11-08T12:00:04.901Z,1.00
2022-11-08T12:03:05.774Z,1.00
2022-11-08T12:05:41.460Z,1.00
2022-11-08T12:08:26.607Z,1.00
2022-11-08T12:11:11.987Z,1.00
2022-11-08T12:13:54.291Z,1.00
2022-11-08T12:16:33.398Z,1.00
2022-11-08T12:19:29.389Z,1.00
2022-11-08T12:22:14.893Z,1.00
2022-11-08T12:24:49.448Z,1.00
2022-11-08T12:27:37.489Z,1.00
2022-11-08T12:30:16.302Z,1.00
2022-11-08T12:33:05.357Z,1.00
2022-11-08T12:36:23.316Z,1.00
2022-11-08T12:38:59.581Z,1.00
2022-11-08T12:41:35.237Z,1.00
2022-11-08T12:44:08.664Z,1.00
2022-11-08T12:47:25.369Z,1.00
2022-11-08T12:50:13.550Z,1.00
2022-11-08T12:53:18.433Z,1.00
2022-11-08T12:55:48.418Z,1.00
2022-11-08T12:58:33.980Z,1.00
2022-11-08T13:01:07.056Z,1.00
2022-11-08T13:03:44.121Z,1.00
2022-11-08T13:06:32.165Z,1.00
2022-11-08T13:09:23.501Z,1.00
2022-11-08T13:12:07.406Z,1.00
2022-11-08T13:14:40.000Z,1.00
2022-11-08T13:17:26.721Z,1.00
2022-11-08T13:20:05.454Z,1.00
2022-11-08T13:22:32.828Z,1.00
2022-11-08T13:25:11.984Z,1.00
2022-11-08T13:27:43.796Z,1.00
2022-11-08T13:30:16.904Z,1.00
2022-11-08T13:32:43.797Z,1.00
2022-11-08T13:35:40.673Z,1.00
2022-11-08T13:38:13.687Z,1.00
2022-11-08T13:41:03.586Z,1.00
2022-11-08T13:43:33.017Z,1.00
2022-11-08T13:46:28.072Z,1.00
2022-11-08T13:48:58.056Z,1.00
2022-11-08T13:51:31.898Z,1.00
2022-11-08T13:54:03.265Z,1.00
2022-11-08T13:56:45.611Z,1.00
2022-11-08T13:59:45.056Z,1.00
2022-11-08T14:02:23.909Z,1.00
2022-11-08T14:04:53.690Z,1.00
2022-11-08T14:07:56.123Z,1.00
2022-11-08T14:10:34.808Z,1.00
2022-11-08T14:13:32.444Z,1.00
2022-11-08T14:16:12.056Z,1.00
2022-11-08T14:18:39.375Z,1.00
2022-11-08T14:21:07.841Z,1.00
2022-11-08T14:23:40.487Z,1.00
2022-11-08T14:26:15.264Z,1.00
2022-11-08T14:28:47.059Z,1.00
2022-11-08T14:31:32.417Z,1.00
2022-11-08T14:34:00.586Z,1.00
2022-11-08T14:36:30.055Z,1.00
2022-11-08T14:39:04.704Z,1.00
2022-11-08T14:41:33.314Z,1.00
2022-11-08T14:44:02.540Z,1.00
2022-11-08T14:46:36.411Z,1.00
2022-11-08T14:49:30.733Z,1.00
2022-11-08T14:52:19.268Z,1.00
2022-11-08T14:54:48.116Z,1.00
2022-11-08T14:57:37.133Z,1.00
2022-11-08T15:00:13.168Z,1.00
2022-11-08T15:02:42.481Z,1.00
2022-11-08T15:05:34.401Z,1.00
2022-11-08T15:08:03.827Z,1.00
2022-11-08T15:10:30.924Z,1.00
2022-11-08T15:12:58.141Z,1.00
2022-11-08T15:15:33.722Z,1.00
2022-11-08T15:18:15.575Z,1.00
2022-11-08T15:21:16.769Z,1.00
2022-11-08T15:23:47.834Z,1.00
2022-11-08T15:26:35.657Z,1.00
2022-11-08T15:29:21.224Z,1.00
2022-11-08T15:32:04.690Z,1.00
2022-11-08T15:34:39.434Z,1.00
2022-11-08T15:37:21.355Z,1.00
2022-11-08T15:39:48.456Z,1.00
2022-11-08T15:42:17.580Z,1.00
2022-11-08T15:45:14.324Z,1.00
2022-11-08T15:47:46.182Z,1.00
2022-11-08T15:50:27.130Z,1.00
2022-11-08T15:52:56.255Z,1.00
2022-11-08T15:55:38.821Z,1.00
2022-11-08T15:58:13.835Z,1.00
2022-11-08T16:00:46.330Z,1.00
2022-11-08T16:03:13.481Z,1.00
2022-11-08T16:05:40.500Z,1.00
2022-11-08T16:08:07.375Z,1.00
2022-11-08T16:10:42.496Z,1.00
2022-11-08T16:13:17.315Z,1.00
2022-11-08T16:15:45.582Z,1.00
2022-11-08T16:18:12.729Z,1.00
2022-11-08T16:20:40.074Z,1.00
2022-11-08T16:23:09.431Z,1.00
2022-11-08T16:25:56.355Z,1.00
2022-11-08T16:28:38.197Z,1.00
2022-11-08T16:31:14.247Z,1.00
2022-11-08T16:33:43.325Z,1.00
2022-11-08T16:36:22.056Z,1.00
2022-11-08T16:38:57.353Z,1.00
2022-11-08T16:41:25.572Z,1.00
2022-11-08T16:43:52.934Z,1.00
2022-11-08T16:46:21.699Z,1.00
2022-11-08T16:48:55.164Z,1.00
2022-11-08T16:51:25.198Z,1.00
2022-11-08T16:53:52.557Z,1.00
2022-11-08T16:56:19.730Z,1.00
2022-11-08T16:58:46.644Z,1.00
2022-11-08T17:01:23.268Z,1.00
2022-11-08T17:03:50.281Z,1.00
2022-11-08T17:06:18.475Z,1.00
2022-11-08T17:08:46.207Z,1.00
2022-11-08T17:11:21.738Z,1.00
2022-11-08T17:13:49.265Z,1.00
2022-11-08T17:16:18.697Z,1.00
2022-11-08T17:18:51.280Z,1.00
2022-11-08T17:21:43.779Z,1.00
2022-11-08T17:24:07.606Z,1.00
2022-11-08T17:26:34.530Z,1.00
2022-11-08T17:29:01.471Z,1.00
2022-11-08T17:31:28.376Z,1.00
2022-11-08T17:33:56.091Z,1.00
2022-11-08T17:36:23.149Z,1.00
2022-11-08T17:38:49.978Z,1.00
2022-11-08T17:41:17.138Z,1.00
2022-11-08T17:43:44.295Z,1.00
2022-11-08T17:46:11.570Z,1.00
2022-11-08T17:48:39.676Z,1.00
2022-11-08T17:51:07.525Z,1.00
2022-11-08T17:53:35.450Z,1.00
2022-11-08T17:56:05.080Z,1.00
2022-11-08T17:58:33.935Z,1.00
2022-11-08T18:01:04.274Z,1.00
2022-11-08T18:03:32.389Z,1.00
2022-11-08T18:06:01.363Z,1.00
2022-11-08T18:08:30.591Z,1.00
2022-11-08T18:10:58.488Z,1.00
2022-11-08T18:13:26.979Z,1.00
2022-11-08T18:15:53.896Z,1.00
2022-11-08T18:18:21.456Z,1.00
2022-11-08T18:20:55.714Z,1.00
2022-11-08T18:23:23.124Z,1.00
2022-11-08T18:25:51.084Z,1.00
2022-11-08T18:28:17.973Z,1.00
2022-11-08T18:30:47.968Z,1.00
2022-11-08T18:33:16.398Z,1.00
2022-11-08T18:35:43.938Z,1.00
2022-11-08T18:38:12.398Z,1.00
2022-11-08T18:40:39.916Z,1.00
2022-11-08T18:43:07.408Z,1.00
2022-11-08T18:45:34.359Z,1.00
2022-11-08T18:48:01.261Z,1.00
2022-11-08T18:50:28.152Z,1.00
2022-11-08T18:52:55.939Z,1.00
2022-11-08T18:55:25.410Z,1.00
2022-11-08T18:57:53.249Z,1.00
2022-11-08T19:00:20.367Z,1.00
2022-11-08T19:02:47.303Z,1.00
2022-11-08T19:05:14.176Z,1.00
2022-11-08T19:07:41.048Z,1.00
2022-11-08T19:10:08.972Z,1.00
2022-11-08T19:12:35.823Z,1.00
2022-11-08T19:15:02.716Z,1.00
2022-11-08T19:17:31.837Z,1.00
2022-11-08T19:19:58.705Z,1.00
2022-11-08T19:22:25.690Z,1.00
2022-11-08T19:24:52.536Z,1.00
2022-11-08T19:27:20.501Z,1.00
2022-11-08T19:29:47.395Z,1.00
2022-11-08T19:32:14.302Z,1.00
2022-11-08T19:34:41.415Z,1.00
2022-11-08T19:37:08.336Z,1.00
2022-11-08T19:39:35.231Z,1.00
2022-11-08T19:42:02.187Z,1.00
2022-11-08T19:44:29.184Z,1.00
2022-11-08T19:46:56.204Z,1.00
2022-11-08T19:49:26.272Z,1.00
2022-11-08T19:51:53.164Z,1.00
2022-11-08T19:54:20.234Z,1.00
2022-11-08T19:57:04.883Z,1.00
2022-11-08T19:59:32.404Z,1.00
2022-11-08T20:02:00.012Z,1.00
2022-11-08T20:04:27.207Z,1.00
2022-11-08T20:06:54.428Z,1.00
2022-11-08T20:09:25.958Z,1.00
2022-11-08T20:11:56.025Z,1.00
2022-11-08T20:14:23.025Z,1.00
2022-11-08T20:16:53.399Z,1.00
2022-11-08T20:19:21.401Z,1.00
2022-11-08T20:21:48.749Z,1.00
2022-11-08T20:24:16.296Z,1.00
2022-11-08T20:26:43.469Z,1.00
2022-11-08T20:29:10.745Z,1.00
2022-11-08T20:31:39.127Z,1.00
2022-11-08T20:34:09.922Z,1.00
2022-11-08T20:36:37.750Z,1.00
2022-11-08T20:39:07.790Z,1.00
2022-11-08T20:41:37.675Z,1.00
2022-11-08T20:44:06.118Z,1.00
2022-11-08T20:46:34.194Z,1.00
2022-11-08T20:49:01.924Z,1.00
2022-11-08T20:51:30.449Z,1.00
2022-11-08T20:53:58.157Z,1.00
2022-11-08T20:56:25.307Z,1.00
2022-11-08T20:58:53.501Z,1.00
2022-11-08T21:01:24.021Z,1.00
2022-11-08T21:03:52.497Z,1.00
2022-11-08T21:06:22.568Z,1.00
2022-11-08T21:08:58.989Z,1.00
2022-11-08T21:11:27.794Z,1.00
2022-11-08T21:13:54.827Z,1.00
2022-11-08T21:16:30.997Z,1.00
2022-11-08T21:19:02.429Z,1.00
2022-11-08T21:21:29.318Z,1.00
2022-11-08T21:23:56.299Z,1.00
2022-11-08T21:26:24.551Z,1.00
2022-11-08T21:28:52.316Z,1.00
2022-11-08T21:31:19.535Z,1.00
2022-11-08T21:33:46.448Z,1.00
2022-11-08T21:36:13.962Z,1.00
2022-11-08T21:38:40.910Z,1.00
2022-11-08T21:41:09.514Z,1.00
2022-11-08T21:43:44.837Z,1.00
2022-11-08T21:46:16.534Z,1.00
2022-11-08T21:48:43.880Z,1.00
2022-11-08T21:51:10.828Z,1.00
2022-11-08T21:53:45.167Z,1.00
2022-11-08T21:56:16.616Z,1.00
2022-11-08T21:58:43.600Z,1.00
2022-11-08T22:01:10.652Z,1.00
2022-11-08T22:03:37.633Z,1.00
2022-11-08T22:06:04.771Z,1.00
2022-11-08T22:08:32.095Z,1.00
2022-11-08T22:10:58.975Z,1.00
2022-11-08T22:13:26.105Z,1.00
2022-11-08T22:15:53.032Z,1.00
2022-11-08T22:18:31.108Z,1.00
2022-11-08T22:21:26.617Z,1.00
2022-11-08T22:23:53.599Z,1.00
2022-11-08T22:26:20.656Z,1.00
2022-11-08T22:28:47.783Z,1.00
2022-11-08T22:31:14.860Z,1.00
2022-11-08T22:33:42.020Z,1.00
2022-11-08T22:36:09.378Z,1.00
2022-11-08T22:38:36.737Z,1.00
2022-11-08T22:41:04.466Z,1.00
2022-11-08T22:43:32.612Z,1.00
2022-11-08T22:45:59.587Z,1.00
2022-11-08T22:48:26.589Z,1.00
2022-11-08T22:50:53.494Z,1.00
2022-11-08T22:53:20.855Z,1.00
2022-11-08T22:55:48.122Z,1.00
2022-11-08T22:58:15.113Z,1.00
2022-11-08T23:00:42.747Z,1.00
2022-11-08T23:03:10.102Z,1.00
2022-11-08T23:05:37.399Z,1.00
2022-11-08T23:08:04.872Z,1.00
2022-11-08T23:10:31.912Z,1.00
2022-11-08T23:13:18.834Z,1.00
2022-11-08T23:16:24.546Z,1.00
2022-11-08T23:19:10.295Z,1.00
2022-11-08T23:21:56.092Z,1.00
2022-11-08T23:24:24.348Z,1.00
2022-11-08T23:27:09.732Z,1.00
2022-11-08T23:29:55.386Z,1.00
2022-11-08T23:32:23.632Z,1.00
2022-11-08T23:34:50.569Z,1.00
2022-11-08T23:37:17.510Z,1.00
2022-11-08T23:40:10.684Z,1.00
2022-11-08T23:42:56.511Z,1.00
2022-11-08T23:45:23.422Z,1.00
2022-11-08T23:47:52.947Z,1.00
2022-11-08T23:50:19.974Z,1.00
2022-11-08T23:52:47.128Z,1.00
2022-11-08T23:55:14.355Z,1.00
2022-11-08T23:57:41.364Z,1.00
